»·PEaware :: N733WT KBFL-KMHV

N733WT :: KBFL-KMHV

FLIGHT INFORMATION

Flight Status: Arrived
Operator: Privately registered:
United States
More flights under this callsign
Pilot: Jeremy K. (15416)
Aircraft: CESSNA 172 SKYHAWK
(C172)
More flights by this aircraft type
Origin: KBFL Meadows
United States
Destination: KMHV Mojave
United States
More flights between these airports :: More routes between these airports
Route: +
File this flight plan on PilotEdge
Remarks: CAT 06
Altitude:
(Current/Filed)
7,500ft
Speed:
(Current/Filed)
120kts
Departed: 01-Jun-17 02:05 PM
Arrived: 01-Jun-17 03:23 PM
Distance/Time
Traveled:
50nm/1:18
Distance/Time
To Go:
Arrived

Flight Plot

Page will automatically refresh every two minutes.


Map Options




Map Legend


Flown Route
Filed Route
Departure Airport
Arrival Airport
Navaid (VOR, NDB)
Fix

Horizontal Profiles

Position Reports

Time Latitude Longitude Heading Altitude Ground
Speed
01-Jun-17 13:58 35.429376 -119.046110 226 509ft 0kts
01-Jun-17 13:59 35.429376 -119.046110 226 509ft 0kts
01-Jun-17 14:00 35.429374 -119.046113 225 509ft 0kts
01-Jun-17 14:01 35.428389 -119.047130 179 509ft 13kts
01-Jun-17 14:02 35.427124 -119.045868 134 509ft 13kts
01-Jun-17 14:03 35.426242 -119.044767 138 509ft 4kts
01-Jun-17 14:04 35.425706 -119.044778 226 509ft 0kts
01-Jun-17 14:05 35.425704 -119.044781 226 509ft 1kts
01-Jun-17 14:06 35.426060 -119.046772 312 509ft 32kts
01-Jun-17 14:07 35.432070 -119.054272 314 677ft 86kts
01-Jun-17 14:08 35.441133 -119.065385 314 1015ft 96kts
01-Jun-17 14:09 35.449999 -119.076221 313 1619ft 84kts
01-Jun-17 14:10 35.460176 -119.078396 27 2265ft 74kts
01-Jun-17 14:11 35.465096 -119.068341 85 2882ft 61kts
01-Jun-17 14:12 35.464236 -119.057496 90 3263ft 79kts
01-Jun-17 14:13 35.464665 -119.046402 73 3797ft 63kts
01-Jun-17 14:14 35.465291 -119.035709 93 4080ft 80kts
01-Jun-17 14:15 35.462965 -119.023492 102 4565ft 73kts
01-Jun-17 14:16 35.460243 -119.009404 114 5079ft 76kts
01-Jun-17 14:17 35.456026 -118.999049 113 5451ft 75kts
01-Jun-17 14:18 35.452044 -118.985985 98 5677ft 87kts
01-Jun-17 14:19 35.449789 -118.975184 121 6080ft 81kts
01-Jun-17 14:20 35.444471 -118.964392 121 6388ft 85kts
01-Jun-17 14:21 35.439489 -118.952870 114 6789ft 77kts
01-Jun-17 14:22 35.434774 -118.943275 129 7067ft 79kts
01-Jun-17 14:23 35.429692 -118.934795 121 7381ft 78kts
01-Jun-17 14:24 35.423875 -118.925513 134 7552ft 90kts
01-Jun-17 14:25 35.416390 -118.917373 142 7798ft 90kts
01-Jun-17 14:26 35.407281 -118.909267 142 7754ft 112kts
01-Jun-17 14:27 35.396417 -118.899504 143 7537ft 129kts
01-Jun-17 14:28 35.382404 -118.886777 143 7459ft 121kts
01-Jun-17 14:29 35.373307 -118.874685 110 7547ft 107kts
01-Jun-17 14:30 35.366651 -118.860657 126 7614ft 110kts
01-Jun-17 14:31 35.359753 -118.845517 114 7658ft 117kts
01-Jun-17 14:32 35.353611 -118.829023 116 7573ft 123kts
01-Jun-17 14:33 35.348150 -118.812173 109 7568ft 122kts
01-Jun-17 14:34 35.343207 -118.795354 108 7654ft 115kts
01-Jun-17 14:35 35.338341 -118.777868 109 7502ft 123kts
01-Jun-17 14:36 35.332671 -118.761262 110 7640ft 111kts
01-Jun-17 14:37 35.328699 -118.744876 105 7490ft 124kts
01-Jun-17 14:38 35.323979 -118.729830 115 7419ft 126kts
01-Jun-17 14:39 35.318820 -118.715659 115 7590ft 109kts
01-Jun-17 14:40 35.314405 -118.703904 118 7654ft 111kts
01-Jun-17 14:41 35.308231 -118.691788 122 7594ft 113kts
01-Jun-17 14:42 35.302796 -118.679019 113 7620ft 114kts
01-Jun-17 14:43 35.298246 -118.665252 111 7609ft 115kts
01-Jun-17 14:44 35.294089 -118.650707 108 7578ft 115kts
01-Jun-17 14:45 35.289899 -118.637257 106 7638ft 112kts
01-Jun-17 14:46 35.286884 -118.622873 102 7517ft 124kts
01-Jun-17 14:47 35.284164 -118.607049 100 7602ft 113kts
01-Jun-17 14:48 35.281733 -118.590297 97 7714ft 104kts
01-Jun-17 14:49 35.278921 -118.569166 103 7575ft 119kts
01-Jun-17 14:50 35.275025 -118.550677 103 7467ft 131kts
01-Jun-17 14:51 35.271237 -118.533616 105 7635ft 119kts
01-Jun-17 14:52 35.266423 -118.516668 115 7487ft 126kts
01-Jun-17 14:53 35.260230 -118.500252 116 7590ft 116kts
01-Jun-17 14:54 35.254001 -118.484415 116 7528ft 121kts
01-Jun-17 14:55 35.248739 -118.467395 106 7571ft 118kts
01-Jun-17 14:56 35.243755 -118.450907 105 7627ft 113kts
01-Jun-17 14:57 35.240857 -118.434378 104 7581ft 120kts
01-Jun-17 14:58 35.235588 -118.418267 110 7645ft 115kts
01-Jun-17 14:59 35.231572 -118.401887 104 7692ft 113kts
01-Jun-17 15:00 35.227006 -118.385244 110 7541ft 125kts
01-Jun-17 15:01 35.220989 -118.369454 114 7542ft 128kts
01-Jun-17 15:02 35.215210 -118.353352 113 7656ft 121kts
01-Jun-17 15:03 35.209730 -118.338733 114 7678ft 123kts
01-Jun-17 15:04 35.203756 -118.322740 116 7456ft 128kts
01-Jun-17 15:05 35.196911 -118.307549 123 7536ft 120kts
01-Jun-17 15:06 35.188578 -118.294481 134 7540ft 116kts
01-Jun-17 15:07 35.178401 -118.281002 131 7551ft 110kts
01-Jun-17 15:08 35.168556 -118.267344 130 7537ft 110kts
01-Jun-17 15:09 35.159103 -118.253140 125 7403ft 119kts
01-Jun-17 15:10 35.150575 -118.237932 126 7525ft 112kts
01-Jun-17 15:11 35.141088 -118.222988 131 7067ft 143kts
01-Jun-17 15:12 35.129014 -118.207114 132 6530ft 145kts
01-Jun-17 15:13 35.116947 -118.190771 133 5734ft 155kts
01-Jun-17 15:14 35.104532 -118.175331 136 4781ft 145kts
01-Jun-17 15:15 35.092542 -118.162623 142 4396ft 108kts
01-Jun-17 15:16 35.082580 -118.152736 143 4069ft 108kts
01-Jun-17 15:17 35.072394 -118.143010 134 4005ft 115kts
01-Jun-17 15:18 35.063044 -118.131212 133 4080ft 123kts
01-Jun-17 15:19 35.053643 -118.119689 138 3929ft 125kts
01-Jun-17 15:20 35.043026 -118.108746 138 3652ft 129kts
01-Jun-17 15:21 35.031880 -118.103800 224 3686ft 105kts
01-Jun-17 15:22 35.030726 -118.115033 318 3541ft 77kts
01-Jun-17 15:23 35.038187 -118.123076 312 3125ft 69kts
01-Jun-17 15:24 35.044722 -118.130972 313 2850ft 66kts
01-Jun-17 15:25 35.050060 -118.137338 312 2794ft 39kts
01-Jun-17 15:26 35.053703 -118.141694 315 2794ft 40kts
01-Jun-17 15:27 35.056507 -118.145114 314 2794ft 29kts
01-Jun-17 15:28 35.057593 -118.147572 270 2794ft 4kts
01-Jun-17 15:29 35.057593 -118.147579 270 2794ft 0kts
01-Jun-17 15:30 35.057567 -118.147848 259 2794ft 11kts
01-Jun-17 15:31 35.057099 -118.151504 246 2794ft 17kts
01-Jun-17 15:32 35.056444 -118.152157 135 2794ft 1kts
01-Jun-17 15:33 35.056505 -118.152048 355 2794ft 0kts

Navigation Log

Ident Type
1. KBFL Airport
2. KMHV Airport